Madrid Aeropuerto

latitud = 40° 28' 00''N | longitud = 003° 33' 20''W
667 metros sobre el nivel del mar |

Fecha, hora, temperatura, viento dirección y velocidad, humedad y presión.

  • 14-10-2018 19:00:00 | 15.60°C | Oeste |19.00 km/h | 53.00% | 941.20 hPa
  • 14-10-2018 18:00:00 | 15.40°C | Norte |13.00 km/h | 62.00% | 940.80 hPa
  • 14-10-2018 16:00:00 | 16.10°C | Sudoeste |30.00 km/h | 52.00% | 940.70 hPa
  • 14-10-2018 15:00:00 | 16.20°C | Oeste |26.00 km/h | 55.00% | 940.80 hPa
  • 14-10-2018 14:00:00 | 15.70°C | Oeste |27.00 km/h | 60.00% | 940.90 hPa
  • 14-10-2018 13:00:00 | 14.70°C | Sudoeste |22.00 km/h | 77.00% | 941.20 hPa
  • 14-10-2018 12:00:00 | 14.20°C | Sudoeste |20.00 km/h | 85.00% | 941.00 hPa
  • 14-10-2018 11:00:00 | 14.70°C | Sur |23.00 km/h | 88.00% | 940.60 hPa
  • 14-10-2018 10:00:00 | 15.10°C | Sur |25.00 km/h | 86.00% | 939.80 hPa
  • 14-10-2018 09:00:00 | 15.40°C | Sur |15.00 km/h | 83.00% | 938.80 hPa
  • 14-10-2018 08:00:00 | 14.70°C | Sudeste |30.00 km/h | 89.00% | 938.10 hPa
  • 14-10-2018 07:00:00 | 18.00°C | Oeste |29.00 km/h | 70.00% | 940.70 hPa
  • 14-10-2018 06:00:00 | 18.40°C | Sur |11.00 km/h | 72.00% | 940.60 hPa
  • 14-10-2018 05:00:00 | 18.60°C | Sur |13.00 km/h | 72.00% | 940.80 hPa
  • 14-10-2018 04:00:00 | 18.50°C | Sur |22.00 km/h | 71.00% | 941.20 hPa
  • 14-10-2018 03:00:00 | 18.60°C | Sudeste |20.00 km/h | 72.00% | 941.60 hPa
  • 14-10-2018 02:00:00 | 18.10°C | Sudeste |18.00 km/h | 76.00% | 942.60 hPa
  • 14-10-2018 01:00:00 | 17.50°C | Sudeste |7.00 km/h | 74.00% | 943.50 hPa
  • 14-10-2018 00:00:00 | 16.60°C | Norte |8.00 km/h | 84.00% | 944.10 hPa
  • 13-10-2018 23:00:00 | 17.50°C | Noroeste |4.00 km/h | 78.00% | 944.30 hPa
  • 13-10-2018 22:00:00 | 18.60°C | Norte |5.00 km/h | 74.00% | 945.00 hPa
  • 13-10-2018 21:00:00 | 20.00°C | Norte |5.00 km/h | 63.00% | 945.40 hPa
  • 13-10-2018 20:00:00 | 21.40°C | Calma |0.00 km/h | 61.00% | 945.80 hPa
  • 13-10-2018 19:00:00 | 25.70°C | Sur |4.00 km/h | 44.00% | 946.10 hPa
    • Datos gráficos mensuales en Madrid: